sensor_id;sensor_type;location;lat;lon;timestamp;P1;durP1;ratioP1;P2;durP2;ratioP2
12407;SDS011;6268;48.188;17.134;2022-09-09T00:00:40;1.52;;;0.85;;
12407;SDS011;6268;48.188;17.134;2022-09-09T00:03:17;1.33;;;0.65;;
12407;SDS011;6268;48.188;17.134;2022-09-09T00:05:55;0.95;;;0.68;;
12407;SDS011;6268;48.188;17.134;2022-09-09T00:08:37;2.22;;;0.70;;
12407;SDS011;6268;48.188;17.134;2022-09-09T00:11:16;0.60;;;0.60;;
12407;SDS011;6268;48.188;17.134;2022-09-09T00:13:57;0.85;;;0.65;;
12407;SDS011;6268;48.188;17.134;2022-09-09T00:16:32;1.13;;;0.70;;
12407;SDS011;6268;48.188;17.134;2022-09-09T00:19:08;0.70;;;0.70;;
12407;SDS011;6268;48.188;17.134;2022-09-09T00:21:49;1.35;;;0.73;;
12407;SDS011;6268;48.188;17.134;2022-09-09T00:24:32;0.95;;;0.65;;
12407;SDS011;6268;48.188;17.134;2022-09-09T00:27:13;2.38;;;0.80;;
12407;SDS011;6268;48.188;17.134;2022-09-09T00:29:56;0.95;;;0.80;;
12407;SDS011;6268;48.188;17.134;2022-09-09T00:32:30;1.02;;;0.90;;
12407;SDS011;6268;48.188;17.134;2022-09-09T00:35:03;1.48;;;0.80;;
12407;SDS011;6268;48.188;17.134;2022-09-09T00:37:44;1.77;;;0.80;;
12407;SDS011;6268;48.188;17.134;2022-09-09T00:40:22;1.63;;;0.98;;
12407;SDS011;6268;48.188;17.134;2022-09-09T00:43:09;0.98;;;0.90;;
12407;SDS011;6268;48.188;17.134;2022-09-09T00:49:20;0.60;;;0.60;;
12407;SDS011;6268;48.188;17.134;2022-09-09T00:52:14;0.93;;;0.80;;
12407;SDS011;6268;48.188;17.134;2022-09-09T00:55:03;3.80;;;0.80;;
12407;SDS011;6268;48.188;17.134;2022-09-09T00:57:46;3.40;;;0.77;;
12407;SDS011;6268;48.188;17.134;2022-09-09T01:00:20;1.92;;;0.80;;
12407;SDS011;6268;48.188;17.134;2022-09-09T01:02:53;1.50;;;0.75;;
12407;SDS011;6268;48.188;17.134;2022-09-09T01:05:55;0.60;;;0.60;;
12407;SDS011;6268;48.188;17.134;2022-09-09T01:08:39;1.40;;;1.00;;
12407;SDS011;6268;48.188;17.134;2022-09-09T01:11:25;1.00;;;1.00;;
12407;SDS011;6268;48.188;17.134;2022-09-09T01:14:01;1.63;;;1.10;;
12407;SDS011;6268;48.188;17.134;2022-09-09T01:16:58;1.80;;;0.77;;
12407;SDS011;6268;48.188;17.134;2022-09-09T01:19:36;2.97;;;1.10;;
12407;SDS011;6268;48.188;17.134;2022-09-09T01:22:20;1.65;;;0.70;;
12407;SDS011;6268;48.188;17.134;2022-09-09T01:25:09;2.85;;;0.90;;
12407;SDS011;6268;48.188;17.134;2022-09-09T01:27:50;1.70;;;1.08;;
12407;SDS011;6268;48.188;17.134;2022-09-09T01:30:22;1.20;;;1.20;;
12407;SDS011;6268;48.188;17.134;2022-09-09T01:32:53;2.63;;;1.00;;
12407;SDS011;6268;48.188;17.134;2022-09-09T01:35:33;3.85;;;1.38;;
12407;SDS011;6268;48.188;17.134;2022-09-09T01:38:14;0.90;;;0.90;;
12407;SDS011;6268;48.188;17.134;2022-09-09T01:40:44;1.00;;;1.00;;
12407;SDS011;6268;48.188;17.134;2022-09-09T01:43:14;0.90;;;0.88;;
12407;SDS011;6268;48.188;17.134;2022-09-09T01:45:43;0.80;;;0.80;;
12407;SDS011;6268;48.188;17.134;2022-09-09T01:48:15;0.80;;;0.80;;
12407;SDS011;6268;48.188;17.134;2022-09-09T01:50:46;2.28;;;0.82;;
12407;SDS011;6268;48.188;17.134;2022-09-09T01:53:15;0.75;;;0.75;;
12407;SDS011;6268;48.188;17.134;2022-09-09T01:55:52;0.90;;;0.90;;
12407;SDS011;6268;48.188;17.134;2022-09-09T01:58:45;1.48;;;0.82;;
12407;SDS011;6268;48.188;17.134;2022-09-09T02:01:31;1.70;;;0.98;;
12407;SDS011;6268;48.188;17.134;2022-09-09T02:04:21;2.53;;;0.90;;
12407;SDS011;6268;48.188;17.134;2022-09-09T02:07:06;2.47;;;0.90;;
12407;SDS011;6268;48.188;17.134;2022-09-09T02:09:49;1.83;;;1.23;;
12407;SDS011;6268;48.188;17.134;2022-09-09T02:12:29;1.65;;;1.10;;
12407;SDS011;6268;48.188;17.134;2022-09-09T02:15:03;1.75;;;1.00;;
12407;SDS011;6268;48.188;17.134;2022-09-09T02:17:38;5.72;;;2.35;;
12407;SDS011;6268;48.188;17.134;2022-09-09T02:20:10;4.38;;;2.22;;
12407;SDS011;6268;48.188;17.134;2022-09-09T02:22:43;4.75;;;1.80;;
12407;SDS011;6268;48.188;17.134;2022-09-09T02:25:18;2.28;;;1.80;;
12407;SDS011;6268;48.188;17.134;2022-09-09T02:27:51;4.82;;;1.58;;
12407;SDS011;6268;48.188;17.134;2022-09-09T02:30:22;1.83;;;1.30;;
12407;SDS011;6268;48.188;17.134;2022-09-09T02:32:50;1.80;;;1.60;;
12407;SDS011;6268;48.188;17.134;2022-09-09T02:35:24;2.15;;;1.80;;
12407;SDS011;6268;48.188;17.134;2022-09-09T02:37:55;1.70;;;1.60;;
12407;SDS011;6268;48.188;17.134;2022-09-09T02:40:30;3.80;;;1.60;;
12407;SDS011;6268;48.188;17.134;2022-09-09T02:42:59;1.30;;;1.20;;
12407;SDS011;6268;48.188;17.134;2022-09-09T02:45:31;2.40;;;1.88;;
12407;SDS011;6268;48.188;17.134;2022-09-09T02:48:12;1.83;;;1.60;;
12407;SDS011;6268;48.188;17.134;2022-09-09T02:50:51;1.40;;;1.30;;
12407;SDS011;6268;48.188;17.134;2022-09-09T02:53:31;1.67;;;1.58;;
12407;SDS011;6268;48.188;17.134;2022-09-09T02:56:11;1.70;;;1.60;;
12407;SDS011;6268;48.188;17.134;2022-09-09T02:58:43;1.58;;;1.40;;
12407;SDS011;6268;48.188;17.134;2022-09-09T03:01:14;1.38;;;1.20;;
12407;SDS011;6268;48.188;17.134;2022-09-09T03:03:43;2.15;;;1.40;;
12407;SDS011;6268;48.188;17.134;2022-09-09T03:06:12;1.40;;;1.30;;
12407;SDS011;6268;48.188;17.134;2022-09-09T03:08:41;1.70;;;1.60;;
12407;SDS011;6268;48.188;17.134;2022-09-09T03:11:15;1.70;;;1.30;;
12407;SDS011;6268;48.188;17.134;2022-09-09T03:13:43;1.23;;;1.23;;
12407;SDS011;6268;48.188;17.134;2022-09-09T03:16:13;1.92;;;1.30;;
12407;SDS011;6268;48.188;17.134;2022-09-09T03:18:42;2.00;;;1.90;;
12407;SDS011;6268;48.188;17.134;2022-09-09T03:21:12;1.60;;;1.50;;
12407;SDS011;6268;48.188;17.134;2022-09-09T03:23:41;2.35;;;1.95;;
12407;SDS011;6268;48.188;17.134;2022-09-09T03:26:11;2.45;;;1.50;;
12407;SDS011;6268;48.188;17.134;2022-09-09T03:28:41;1.90;;;1.80;;
12407;SDS011;6268;48.188;17.134;2022-09-09T03:31:11;2.40;;;1.65;;
12407;SDS011;6268;48.188;17.134;2022-09-09T03:33:41;1.58;;;1.48;;
12407;SDS011;6268;48.188;17.134;2022-09-09T03:36:10;1.70;;;1.60;;
12407;SDS011;6268;48.188;17.134;2022-09-09T03:38:38;11.20;;;8.50;;
12407;SDS011;6268;48.188;17.134;2022-09-09T03:41:07;6.93;;;6.40;;
12407;SDS011;6268;48.188;17.134;2022-09-09T03:43:36;5.18;;;4.88;;
12407;SDS011;6268;48.188;17.134;2022-09-09T03:46:04;3.88;;;3.58;;
12407;SDS011;6268;48.188;17.134;2022-09-09T03:48:33;3.72;;;3.40;;
12407;SDS011;6268;48.188;17.134;2022-09-09T03:51:04;3.65;;;3.00;;
12407;SDS011;6268;48.188;17.134;2022-09-09T03:53:33;3.97;;;3.10;;
12407;SDS011;6268;48.188;17.134;2022-09-09T03:56:02;4.53;;;4.22;;
12407;SDS011;6268;48.188;17.134;2022-09-09T03:58:33;19.10;;;17.23;;
12407;SDS011;6268;48.188;17.134;2022-09-09T04:01:04;21.83;;;19.75;;
12407;SDS011;6268;48.188;17.134;2022-09-09T04:03:36;4.80;;;4.07;;
12407;SDS011;6268;48.188;17.134;2022-09-09T04:06:07;2.58;;;2.33;;
12407;SDS011;6268;48.188;17.134;2022-09-09T04:08:40;1.90;;;1.80;;
12407;SDS011;6268;48.188;17.134;2022-09-09T04:11:09;2.35;;;2.25;;
12407;SDS011;6268;48.188;17.134;2022-09-09T04:13:37;1.88;;;1.77;;
12407;SDS011;6268;48.188;17.134;2022-09-09T04:16:07;1.98;;;1.88;;
12407;SDS011;6268;48.188;17.134;2022-09-09T04:18:38;1.83;;;1.73;;
12407;SDS011;6268;48.188;17.134;2022-09-09T04:21:08;3.30;;;2.00;;
12407;SDS011;6268;48.188;17.134;2022-09-09T04:23:38;1.90;;;1.80;;
12407;SDS011;6268;48.188;17.134;2022-09-09T04:26:07;2.45;;;1.70;;
12407;SDS011;6268;48.188;17.134;2022-09-09T04:28:36;4.97;;;3.38;;
12407;SDS011;6268;48.188;17.134;2022-09-09T04:31:06;2.80;;;2.60;;
12407;SDS011;6268;48.188;17.134;2022-09-09T04:33:37;2.92;;;2.22;;
12407;SDS011;6268;48.188;17.134;2022-09-09T04:36:06;10.93;;;3.53;;
12407;SDS011;6268;48.188;17.134;2022-09-09T04:38:37;19.02;;;17.02;;
12407;SDS011;6268;48.188;17.134;2022-09-09T04:41:06;9.77;;;8.75;;
12407;SDS011;6268;48.188;17.134;2022-09-09T04:43:37;6.25;;;5.65;;
12407;SDS011;6268;48.188;17.134;2022-09-09T04:46:06;4.05;;;3.22;;
12407;SDS011;6268;48.188;17.134;2022-09-09T04:48:36;2.55;;;2.35;;
12407;SDS011;6268;48.188;17.134;2022-09-09T04:51:05;2.05;;;1.90;;
12407;SDS011;6268;48.188;17.134;2022-09-09T04:53:43;1.92;;;1.70;;
12407;SDS011;6268;48.188;17.134;2022-09-09T04:56:13;2.35;;;2.13;;
12407;SDS011;6268;48.188;17.134;2022-09-09T04:58:44;2.60;;;1.60;;
12407;SDS011;6268;48.188;17.134;2022-09-09T05:01:13;2.22;;;1.60;;
12407;SDS011;6268;48.188;17.134;2022-09-09T05:03:45;2.10;;;1.50;;
12407;SDS011;6268;48.188;17.134;2022-09-09T05:06:17;1.65;;;1.55;;
12407;SDS011;6268;48.188;17.134;2022-09-09T05:08:48;2.80;;;2.10;;
12407;SDS011;6268;48.188;17.134;2022-09-09T05:11:17;2.17;;;1.48;;
12407;SDS011;6268;48.188;17.134;2022-09-09T05:13:49;1.75;;;1.65;;
12407;SDS011;6268;48.188;17.134;2022-09-09T05:16:19;2.45;;;2.35;;
12407;SDS011;6268;48.188;17.134;2022-09-09T05:18:49;1.65;;;1.55;;
12407;SDS011;6268;48.188;17.134;2022-09-09T05:21:20;2.95;;;2.67;;
12407;SDS011;6268;48.188;17.134;2022-09-09T05:23:51;3.28;;;1.80;;
12407;SDS011;6268;48.188;17.134;2022-09-09T05:26:20;2.22;;;1.55;;
12407;SDS011;6268;48.188;17.134;2022-09-09T05:28:50;2.22;;;1.60;;
12407;SDS011;6268;48.188;17.134;2022-09-09T05:31:19;5.75;;;2.10;;
12407;SDS011;6268;48.188;17.134;2022-09-09T05:33:48;3.92;;;1.90;;
12407;SDS011;6268;48.188;17.134;2022-09-09T05:36:17;4.05;;;1.90;;
12407;SDS011;6268;48.188;17.134;2022-09-09T05:38:49;3.88;;;1.60;;
12407;SDS011;6268;48.188;17.134;2022-09-09T05:41:20;2.30;;;2.00;;
12407;SDS011;6268;48.188;17.134;2022-09-09T05:43:49;1.50;;;1.40;;
12407;SDS011;6268;48.188;17.134;2022-09-09T05:46:19;2.13;;;1.92;;
12407;SDS011;6268;48.188;17.134;2022-09-09T05:48:49;3.72;;;1.50;;
12407;SDS011;6268;48.188;17.134;2022-09-09T05:51:22;1.20;;;1.10;;
12407;SDS011;6268;48.188;17.134;2022-09-09T05:53:53;1.83;;;1.15;;
12407;SDS011;6268;48.188;17.134;2022-09-09T05:56:25;1.45;;;0.90;;
12407;SDS011;6268;48.188;17.134;2022-09-09T05:58:55;2.10;;;1.80;;
12407;SDS011;6268;48.188;17.134;2022-09-09T06:01:27;2.20;;;1.58;;
12407;SDS011;6268;48.188;17.134;2022-09-09T06:03:58;2.88;;;2.65;;
12407;SDS011;6268;48.188;17.134;2022-09-09T06:06:30;13.35;;;10.38;;
12407;SDS011;6268;48.188;17.134;2022-09-09T06:09:03;9.38;;;7.47;;
12407;SDS011;6268;48.188;17.134;2022-09-09T06:11:36;7.07;;;4.07;;
12407;SDS011;6268;48.188;17.134;2022-09-09T06:14:07;9.60;;;4.72;;
12407;SDS011;6268;48.188;17.134;2022-09-09T06:16:36;1.77;;;1.42;;
12407;SDS011;6268;48.188;17.134;2022-09-09T06:19:05;3.58;;;1.33;;
12407;SDS011;6268;48.188;17.134;2022-09-09T06:21:35;7.22;;;4.65;;
12407;SDS011;6268;48.188;17.134;2022-09-09T06:24:05;6.78;;;4.32;;
12407;SDS011;6268;48.188;17.134;2022-09-09T06:26:35;1.92;;;1.80;;
12407;SDS011;6268;48.188;17.134;2022-09-09T06:29:07;3.20;;;2.40;;
12407;SDS011;6268;48.188;17.134;2022-09-09T06:31:37;6.10;;;2.60;;
12407;SDS011;6268;48.188;17.134;2022-09-09T06:34:08;8.65;;;1.83;;
12407;SDS011;6268;48.188;17.134;2022-09-09T06:36:38;2.53;;;1.67;;
12407;SDS011;6268;48.188;17.134;2022-09-09T06:39:07;1.85;;;1.20;;
12407;SDS011;6268;48.188;17.134;2022-09-09T06:41:40;2.97;;;1.00;;
12407;SDS011;6268;48.188;17.134;2022-09-09T06:44:10;1.63;;;1.35;;
12407;SDS011;6268;48.188;17.134;2022-09-09T06:46:39;2.95;;;1.50;;
12407;SDS011;6268;48.188;17.134;2022-09-09T06:49:08;1.55;;;1.10;;
12407;SDS011;6268;48.188;17.134;2022-09-09T06:51:38;1.55;;;0.80;;
12407;SDS011;6268;48.188;17.134;2022-09-09T06:54:10;1.77;;;1.00;;
12407;SDS011;6268;48.188;17.134;2022-09-09T06:56:40;0.88;;;0.88;;
12407;SDS011;6268;48.188;17.134;2022-09-09T06:59:11;1.05;;;1.05;;
12407;SDS011;6268;48.188;17.134;2022-09-09T07:01:41;0.60;;;0.60;;
12407;SDS011;6268;48.188;17.134;2022-09-09T07:04:17;2.15;;;1.05;;
12407;SDS011;6268;48.188;17.134;2022-09-09T07:06:47;4.82;;;2.67;;
12407;SDS011;6268;48.188;17.134;2022-09-09T07:09:16;1.33;;;1.20;;
12407;SDS011;6268;48.188;17.134;2022-09-09T07:11:45;0.60;;;0.60;;
12407;SDS011;6268;48.188;17.134;2022-09-09T07:14:17;2.55;;;1.27;;
12407;SDS011;6268;48.188;17.134;2022-09-09T07:16:46;1.80;;;1.02;;
12407;SDS011;6268;48.188;17.134;2022-09-09T07:19:15;1.50;;;1.40;;
12407;SDS011;6268;48.188;17.134;2022-09-09T07:21:44;2.03;;;1.60;;
12407;SDS011;6268;48.188;17.134;2022-09-09T07:24:14;3.35;;;1.20;;
12407;SDS011;6268;48.188;17.134;2022-09-09T07:26:43;1.48;;;0.85;;
12407;SDS011;6268;48.188;17.134;2022-09-09T07:29:12;2.17;;;1.77;;
12407;SDS011;6268;48.188;17.134;2022-09-09T07:31:46;2.45;;;1.45;;
12407;SDS011;6268;48.188;17.134;2022-09-09T07:34:15;1.88;;;1.30;;
12407;SDS011;6268;48.188;17.134;2022-09-09T07:36:44;2.15;;;1.83;;
12407;SDS011;6268;48.188;17.134;2022-09-09T07:39:14;1.80;;;1.70;;
12407;SDS011;6268;48.188;17.134;2022-09-09T07:41:45;1.67;;;1.58;;
12407;SDS011;6268;48.188;17.134;2022-09-09T07:44:16;1.50;;;0.80;;
12407;SDS011;6268;48.188;17.134;2022-09-09T07:46:48;1.10;;;0.77;;
12407;SDS011;6268;48.188;17.134;2022-09-09T07:49:16;1.10;;;1.00;;
12407;SDS011;6268;48.188;17.134;2022-09-09T07:51:54;0.60;;;0.60;;
12407;SDS011;6268;48.188;17.134;2022-09-09T07:54:24;1.60;;;1.50;;
12407;SDS011;6268;48.188;17.134;2022-09-09T07:56:52;0.90;;;0.70;;
12407;SDS011;6268;48.188;17.134;2022-09-09T07:59:21;0.77;;;0.70;;
12407;SDS011;6268;48.188;17.134;2022-09-09T08:01:51;1.35;;;1.23;;
12407;SDS011;6268;48.188;17.134;2022-09-09T08:04:22;2.88;;;1.58;;
12407;SDS011;6268;48.188;17.134;2022-09-09T08:06:53;1.10;;;1.10;;
12407;SDS011;6268;48.188;17.134;2022-09-09T08:09:26;0.85;;;0.85;;
12407;SDS011;6268;48.188;17.134;2022-09-09T08:11:56;1.92;;;0.80;;
12407;SDS011;6268;48.188;17.134;2022-09-09T08:14:27;0.68;;;0.68;;
12407;SDS011;6268;48.188;17.134;2022-09-09T08:16:56;1.00;;;1.00;;
12407;SDS011;6268;48.188;17.134;2022-09-09T08:19:25;1.17;;;0.70;;
12407;SDS011;6268;48.188;17.134;2022-09-09T08:21:55;1.00;;;0.90;;
12407;SDS011;6268;48.188;17.134;2022-09-09T08:24:25;1.08;;;0.60;;
12407;SDS011;6268;48.188;17.134;2022-09-09T08:26:54;1.08;;;0.98;;
12407;SDS011;6268;48.188;17.134;2022-09-09T08:29:23;0.70;;;0.70;;
12407;SDS011;6268;48.188;17.134;2022-09-09T08:31:52;0.80;;;0.73;;
12407;SDS011;6268;48.188;17.134;2022-09-09T08:34:24;0.50;;;0.50;;
12407;SDS011;6268;48.188;17.134;2022-09-09T08:36:54;0.55;;;0.55;;
12407;SDS011;6268;48.188;17.134;2022-09-09T08:39:23;0.70;;;0.70;;
12407;SDS011;6268;48.188;17.134;2022-09-09T08:41:59;2.40;;;0.95;;
12407;SDS011;6268;48.188;17.134;2022-09-09T08:44:51;1.63;;;0.70;;
12407;SDS011;6268;48.188;17.134;2022-09-09T08:47:35;2.10;;;0.60;;
12407;SDS011;6268;48.188;17.134;2022-09-09T08:50:19;1.38;;;0.73;;
12407;SDS011;6268;48.188;17.134;2022-09-09T08:52:56;0.70;;;0.70;;
12407;SDS011;6268;48.188;17.134;2022-09-09T08:55:35;0.70;;;0.70;;
12407;SDS011;6268;48.188;17.134;2022-09-09T08:58:11;1.10;;;0.68;;
12407;SDS011;6268;48.188;17.134;2022-09-09T09:03:48;1.45;;;1.00;;
12407;SDS011;6268;48.188;17.134;2022-09-09T09:06:33;1.00;;;0.90;;
12407;SDS011;6268;48.188;17.134;2022-09-09T09:09:18;0.77;;;0.77;;
12407;SDS011;6268;48.188;17.134;2022-09-09T09:12:00;0.52;;;0.50;;
12407;SDS011;6268;48.188;17.134;2022-09-09T09:14:42;1.23;;;0.70;;
12407;SDS011;6268;48.188;17.134;2022-09-09T09:17:14;0.32;;;0.32;;
12407;SDS011;6268;48.188;17.134;2022-09-09T09:19:47;1.23;;;0.68;;
12407;SDS011;6268;48.188;17.134;2022-09-09T09:22:18;2.42;;;0.57;;
12407;SDS011;6268;48.188;17.134;2022-09-09T09:24:51;2.47;;;0.70;;
12407;SDS011;6268;48.188;17.134;2022-09-09T09:27:27;0.85;;;0.75;;
12407;SDS011;6268;48.188;17.134;2022-09-09T09:30:01;0.75;;;0.65;;
12407;SDS011;6268;48.188;17.134;2022-09-09T09:32:55;0.88;;;0.80;;
12407;SDS011;6268;48.188;17.134;2022-09-09T09:35:30;2.15;;;0.80;;
12407;SDS011;6268;48.188;17.134;2022-09-09T09:38:08;2.28;;;0.80;;
12407;SDS011;6268;48.188;17.134;2022-09-09T09:41:04;0.50;;;0.50;;
12407;SDS011;6268;48.188;17.134;2022-09-09T09:43:35;2.25;;;0.90;;
12407;SDS011;6268;48.188;17.134;2022-09-09T09:46:18;1.23;;;1.15;;
12407;SDS011;6268;48.188;17.134;2022-09-09T09:48:58;1.10;;;0.60;;
12407;SDS011;6268;48.188;17.134;2022-09-09T09:51:29;0.98;;;0.50;;
12407;SDS011;6268;48.188;17.134;2022-09-09T09:54:04;0.82;;;0.82;;
12407;SDS011;6268;48.188;17.134;2022-09-09T09:56:47;3.28;;;0.57;;
12407;SDS011;6268;48.188;17.134;2022-09-09T09:59:32;2.83;;;0.60;;
12407;SDS011;6268;48.188;17.134;2022-09-09T10:02:12;1.38;;;0.50;;
12407;SDS011;6268;48.188;17.134;2022-09-09T10:05:00;0.50;;;0.50;;
12407;SDS011;6268;48.188;17.134;2022-09-09T10:07:31;0.43;;;0.43;;
12407;SDS011;6268;48.188;17.134;2022-09-09T10:10:00;0.93;;;0.43;;
12407;SDS011;6268;48.188;17.134;2022-09-09T10:12:32;1.33;;;0.60;;
12407;SDS011;6268;48.188;17.134;2022-09-09T10:15:24;0.70;;;0.60;;
12407;SDS011;6268;48.188;17.134;2022-09-09T10:18:12;0.68;;;0.40;;
12407;SDS011;6268;48.188;17.134;2022-09-09T10:21:00;0.50;;;0.50;;
12407;SDS011;6268;48.188;17.134;2022-09-09T10:23:46;0.82;;;0.50;;
12407;SDS011;6268;48.188;17.134;2022-09-09T10:26:35;0.85;;;0.40;;
12407;SDS011;6268;48.188;17.134;2022-09-09T10:32:29;1.05;;;0.50;;
12407;SDS011;6268;48.188;17.134;2022-09-09T10:35:09;1.10;;;0.50;;
12407;SDS011;6268;48.188;17.134;2022-09-09T10:37:52;0.60;;;0.50;;
12407;SDS011;6268;48.188;17.134;2022-09-09T10:40:42;0.68;;;0.40;;
12407;SDS011;6268;48.188;17.134;2022-09-09T10:43:32;0.85;;;0.50;;
12407;SDS011;6268;48.188;17.134;2022-09-09T10:46:27;1.40;;;0.50;;
12407;SDS011;6268;48.188;17.134;2022-09-09T10:49:13;4.05;;;0.60;;
12407;SDS011;6268;48.188;17.134;2022-09-09T10:51:58;0.88;;;0.63;;
12407;SDS011;6268;48.188;17.134;2022-09-09T10:54:43;0.55;;;0.50;;
12407;SDS011;6268;48.188;17.134;2022-09-09T10:57:25;0.57;;;0.57;;
12407;SDS011;6268;48.188;17.134;2022-09-09T11:00:04;0.60;;;0.50;;
12407;SDS011;6268;48.188;17.134;2022-09-09T11:02:42;0.50;;;0.50;;
12407;SDS011;6268;48.188;17.134;2022-09-09T11:05:14;0.40;;;0.40;;
12407;SDS011;6268;48.188;17.134;2022-09-09T11:07:49;2.45;;;0.70;;
12407;SDS011;6268;48.188;17.134;2022-09-09T11:10:24;1.90;;;0.70;;
12407;SDS011;6268;48.188;17.134;2022-09-09T11:13:03;0.80;;;0.68;;
12407;SDS011;6268;48.188;17.134;2022-09-09T11:15:39;1.95;;;0.40;;
12407;SDS011;6268;48.188;17.134;2022-09-09T11:18:13;0.60;;;0.60;;
12407;SDS011;6268;48.188;17.134;2022-09-09T11:20:51;0.40;;;0.40;;
12407;SDS011;6268;48.188;17.134;2022-09-09T11:23:25;0.70;;;0.70;;
12407;SDS011;6268;48.188;17.134;2022-09-09T11:26:07;2.50;;;0.60;;
12407;SDS011;6268;48.188;17.134;2022-09-09T11:28:48;0.70;;;0.50;;
12407;SDS011;6268;48.188;17.134;2022-09-09T11:31:43;1.00;;;0.50;;
12407;SDS011;6268;48.188;17.134;2022-09-09T11:34:22;3.00;;;0.63;;
12407;SDS011;6268;48.188;17.134;2022-09-09T11:37:10;1.75;;;0.50;;
12407;SDS011;6268;48.188;17.134;2022-09-09T11:40:09;0.40;;;0.40;;
12407;SDS011;6268;48.188;17.134;2022-09-09T11:42:46;0.73;;;0.40;;
12407;SDS011;6268;48.188;17.134;2022-09-09T11:45:20;0.80;;;0.40;;
12407;SDS011;6268;48.188;17.134;2022-09-09T11:47:54;0.55;;;0.40;;
12407;SDS011;6268;48.188;17.134;2022-09-09T11:50:29;0.32;;;0.32;;
12407;SDS011;6268;48.188;17.134;2022-09-09T11:56:06;0.75;;;0.57;;
12407;SDS011;6268;48.188;17.134;2022-09-09T11:58:42;1.00;;;0.75;;
12407;SDS011;6268;48.188;17.134;2022-09-09T12:01:35;0.45;;;0.45;;
12407;SDS011;6268;48.188;17.134;2022-09-09T12:04:12;0.88;;;0.50;;
12407;SDS011;6268;48.188;17.134;2022-09-09T12:07:01;0.75;;;0.45;;
12407;SDS011;6268;48.188;17.134;2022-09-09T12:09:37;1.00;;;0.50;;
12407;SDS011;6268;48.188;17.134;2022-09-09T12:12:21;1.80;;;0.60;;
12407;SDS011;6268;48.188;17.134;2022-09-09T12:14:58;0.65;;;0.63;;
12407;SDS011;6268;48.188;17.134;2022-09-09T12:17:48;1.23;;;0.40;;
12407;SDS011;6268;48.188;17.134;2022-09-09T12:20:20;1.15;;;0.60;;
12407;SDS011;6268;48.188;17.134;2022-09-09T12:23:13;0.70;;;0.50;;
12407;SDS011;6268;48.188;17.134;2022-09-09T12:26:10;1.55;;;0.50;;
12407;SDS011;6268;48.188;17.134;2022-09-09T12:28:58;1.17;;;0.82;;
12407;SDS011;6268;48.188;17.134;2022-09-09T12:31:46;1.02;;;0.60;;
12407;SDS011;6268;48.188;17.134;2022-09-09T12:34:28;2.03;;;0.60;;
12407;SDS011;6268;48.188;17.134;2022-09-09T12:37:13;0.65;;;0.63;;
12407;SDS011;6268;48.188;17.134;2022-09-09T12:39:53;2.10;;;1.10;;
12407;SDS011;6268;48.188;17.134;2022-09-09T12:42:27;1.42;;;0.45;;
12407;SDS011;6268;48.188;17.134;2022-09-09T12:44:56;1.05;;;0.75;;
12407;SDS011;6268;48.188;17.134;2022-09-09T12:47:29;2.72;;;1.40;;
12407;SDS011;6268;48.188;17.134;2022-09-09T12:50:14;2.15;;;0.90;;
12407;SDS011;6268;48.188;17.134;2022-09-09T12:52:46;0.85;;;0.70;;
12407;SDS011;6268;48.188;17.134;2022-09-09T12:55:18;0.30;;;0.30;;
12407;SDS011;6268;48.188;17.134;2022-09-09T12:57:53;0.50;;;0.50;;
12407;SDS011;6268;48.188;17.134;2022-09-09T13:00:23;0.63;;;0.63;;
12407;SDS011;6268;48.188;17.134;2022-09-09T13:02:53;1.45;;;0.90;;
12407;SDS011;6268;48.188;17.134;2022-09-09T13:05:26;3.53;;;3.22;;
12407;SDS011;6268;48.188;17.134;2022-09-09T13:08:01;0.90;;;0.82;;
12407;SDS011;6268;48.188;17.134;2022-09-09T13:10:32;1.00;;;0.80;;
12407;SDS011;6268;48.188;17.134;2022-09-09T13:13:27;0.90;;;0.80;;
12407;SDS011;6268;48.188;17.134;2022-09-09T13:16:03;0.88;;;0.43;;
12407;SDS011;6268;48.188;17.134;2022-09-09T13:18:37;2.67;;;0.70;;
12407;SDS011;6268;48.188;17.134;2022-09-09T13:21:08;0.60;;;0.60;;
12407;SDS011;6268;48.188;17.134;2022-09-09T13:23:37;0.63;;;0.32;;
12407;SDS011;6268;48.188;17.134;2022-09-09T13:26:06;0.60;;;0.45;;
12407;SDS011;6268;48.188;17.134;2022-09-09T13:28:51;0.80;;;0.70;;
12407;SDS011;6268;48.188;17.134;2022-09-09T13:31:22;0.65;;;0.65;;
12407;SDS011;6268;48.188;17.134;2022-09-09T13:33:56;1.80;;;0.60;;
12407;SDS011;6268;48.188;17.134;2022-09-09T13:36:28;1.15;;;0.93;;
12407;SDS011;6268;48.188;17.134;2022-09-09T13:38:59;0.50;;;0.50;;
12407;SDS011;6268;48.188;17.134;2022-09-09T13:41:32;1.50;;;0.77;;
12407;SDS011;6268;48.188;17.134;2022-09-09T13:44:04;2.03;;;0.60;;
12407;SDS011;6268;48.188;17.134;2022-09-09T13:46:34;0.45;;;0.40;;
12407;SDS011;6268;48.188;17.134;2022-09-09T13:49:18;1.38;;;0.50;;
12407;SDS011;6268;48.188;17.134;2022-09-09T13:51:49;1.13;;;0.40;;
12407;SDS011;6268;48.188;17.134;2022-09-09T13:54:30;0.65;;;0.60;;
12407;SDS011;6268;48.188;17.134;2022-09-09T13:56:59;0.70;;;0.43;;
12407;SDS011;6268;48.188;17.134;2022-09-09T13:59:30;0.88;;;0.50;;
12407;SDS011;6268;48.188;17.134;2022-09-09T14:02:19;0.70;;;0.50;;
12407;SDS011;6268;48.188;17.134;2022-09-09T14:04:49;0.98;;;0.50;;
12407;SDS011;6268;48.188;17.134;2022-09-09T14:07:21;3.30;;;3.10;;
12407;SDS011;6268;48.188;17.134;2022-09-09T14:09:51;3.03;;;2.83;;
12407;SDS011;6268;48.188;17.134;2022-09-09T14:12:19;2.35;;;2.25;;
12407;SDS011;6268;48.188;17.134;2022-09-09T14:14:49;2.65;;;0.68;;
12407;SDS011;6268;48.188;17.134;2022-09-09T14:17:18;1.23;;;1.13;;
12407;SDS011;6268;48.188;17.134;2022-09-09T14:19:48;1.17;;;1.08;;
12407;SDS011;6268;48.188;17.134;2022-09-09T14:22:17;0.93;;;0.57;;
12407;SDS011;6268;48.188;17.134;2022-09-09T14:24:46;1.33;;;1.23;;
12407;SDS011;6268;48.188;17.134;2022-09-09T14:27:16;0.85;;;0.75;;
12407;SDS011;6268;48.188;17.134;2022-09-09T14:29:45;2.35;;;0.73;;
12407;SDS011;6268;48.188;17.134;2022-09-09T14:32:15;0.60;;;0.60;;
12407;SDS011;6268;48.188;17.134;2022-09-09T14:34:44;1.42;;;0.68;;
12407;SDS011;6268;48.188;17.134;2022-09-09T14:37:12;1.10;;;0.65;;
12407;SDS011;6268;48.188;17.134;2022-09-09T14:39:41;0.77;;;0.65;;
12407;SDS011;6268;48.188;17.134;2022-09-09T14:42:10;0.63;;;0.50;;
12407;SDS011;6268;48.188;17.134;2022-09-09T14:44:39;0.60;;;0.55;;
12407;SDS011;6268;48.188;17.134;2022-09-09T14:47:08;0.82;;;0.50;;
12407;SDS011;6268;48.188;17.134;2022-09-09T14:49:38;1.75;;;1.20;;
12407;SDS011;6268;48.188;17.134;2022-09-09T14:52:11;0.90;;;0.90;;
12407;SDS011;6268;48.188;17.134;2022-09-09T14:54:40;1.20;;;0.82;;
12407;SDS011;6268;48.188;17.134;2022-09-09T14:57:09;1.20;;;0.80;;
12407;SDS011;6268;48.188;17.134;2022-09-09T14:59:38;0.98;;;0.85;;
12407;SDS011;6268;48.188;17.134;2022-09-09T15:02:07;0.90;;;0.85;;
12407;SDS011;6268;48.188;17.134;2022-09-09T15:04:38;0.75;;;0.40;;
12407;SDS011;6268;48.188;17.134;2022-09-09T15:07:07;0.60;;;0.60;;
12407;SDS011;6268;48.188;17.134;2022-09-09T15:09:37;0.60;;;0.60;;
12407;SDS011;6268;48.188;17.134;2022-09-09T15:12:05;0.73;;;0.73;;
12407;SDS011;6268;48.188;17.134;2022-09-09T15:14:34;0.63;;;0.63;;
12407;SDS011;6268;48.188;17.134;2022-09-09T15:17:04;1.80;;;1.70;;
12407;SDS011;6268;48.188;17.134;2022-09-09T15:19:33;0.93;;;0.80;;
12407;SDS011;6268;48.188;17.134;2022-09-09T15:22:04;2.22;;;0.98;;
12407;SDS011;6268;48.188;17.134;2022-09-09T15:24:34;1.48;;;0.98;;
12407;SDS011;6268;48.188;17.134;2022-09-09T15:27:03;1.33;;;0.88;;
12407;SDS011;6268;48.188;17.134;2022-09-09T15:29:32;1.15;;;0.90;;
12407;SDS011;6268;48.188;17.134;2022-09-09T15:32:01;2.58;;;1.10;;
12407;SDS011;6268;48.188;17.134;2022-09-09T15:34:30;1.67;;;1.35;;
12407;SDS011;6268;48.188;17.134;2022-09-09T15:36:58;3.38;;;1.17;;
12407;SDS011;6268;48.188;17.134;2022-09-09T15:39:28;1.38;;;1.02;;
12407;SDS011;6268;48.188;17.134;2022-09-09T15:42:03;1.17;;;0.93;;
12407;SDS011;6268;48.188;17.134;2022-09-09T15:44:40;1.95;;;1.75;;